Weather at Laney College Heliport [CLOSED]

Public forecast

Using degrees Fahrenheit for public forecast. Weather courtesy of forecast.io.

Closest aviation weather report (METAR) to Laney College Heliport

Closest report is Metropolitan Oakland International Airport, 5.0 nm (9.2 km) SSE.

2024/05/28 00:53 (retrieved 36 minutes ago)

KOAK 280053Z 28012KT 10SM FEW010 15/10 A3004 RMK AO2 SLP173 T01500100

Closest aviation forecast (TAF) to Laney College Heliport

Closest forecast is Travis Air Force Base, 32.2 nm (59.7 km) NNE.

2024/05/27 19:38 (retrieved 6 hours ago)

TAF KSUU 271900Z 2719/2901 23012G18KT 9999 SKC QNH2991INS BECMG 2719/2720 23015G25KT 9999 SKC QNH2990INS BECMG 2814/2815 23010G15KT 9999 SKC QNH3000INS TX27/2723Z TN10/2813Z